Terminal Aerodrome Forecast
Issued by NWS Sterling, VA

Home | Current Version | Previous Version | Text Only | Print | Product List | Glossary On
Versions: 1 2 3 4 5 6 7 8 9 10 11 12 13 14
000
FTUS41 KLWX 022329
TAFCHO
TAF
KCHO 022329Z 0300/0324 02004KT P6SM SKC
     FM031500 16005KT P6SM OVC050
     FM031800 19009KT 4SM BR OVC025
      TEMPO 0318/0321 4SM -FZRA OVC025
     FM032100 19011KT 4SM BR OVC015
      TEMPO 0321/0324 4SM -FZDZ OVC015=

USA.gov is the U.S. government's official web portal to all federal, state and local government web resources and services.